KTCL/TCL METAR and TAF weather

Enter ICAO airport designator
Station Type Date Time Source
KTCL METAR 2019/02/16 16:53 UTC NOAA

KTCL 161653Z 01006KT 10SM OVC013 11/06 A2989 RMK AO2 SLP120 T01060061


Station Type Date Time Source
KTCL Decoded METAR 2019/02/16 16:53 UTC NOAA

TUSCALOOSA REGIONAL AIRPORT, AL, United States (KTCL) 33-13N 087-37W
Feb 16, 2019 - 11:53 AM EST / 2019.02.16 1653 UTC
Wind: from the N (010 degrees) at 7 MPH (6 KT):0
Visibility: 10 mile(s):0
Sky conditions: overcast
Temperature: 51.1 F (10.6 C)
Dew Point: 43.0 F (6.1 C)
Relative Humidity: 73%
Pressure (altimeter): 29.89 in. Hg (1012 hPa)
ob: KTCL 161653Z 01006KT 10SM OVC013 11/06 A2989 RMK AO2 SLP120 T01060061
cycle: 17

Station Type Date Time Source
KTCL TAF 2019/02/16 18:28 UTC NOAA

TAF KTCL 161726Z 1618/1718 01007KT P6SM OVC010
FM162000 02005KT P6SM OVC020
FM170200 07003KT P6SM BKN040
FM170700 11004KT P6SM OVC015
FM170900 16007KT 5SM -SHRA BR OVC007


Example: see airport list